sensor_id;sensor_type;location;lat;lon;timestamp;pressure;altitude;pressure_sealevel;temperature;humidity
72585;BME280;60618;40.084;32.908;2022-11-11T00:01:10;90344.56;;;6.34;54.53
72585;BME280;60618;40.084;32.908;2022-11-11T00:03:38;90343.50;;;6.44;53.66
72585;BME280;60618;40.084;32.908;2022-11-11T00:06:09;90346.25;;;6.53;53.58
72585;BME280;60618;40.084;32.908;2022-11-11T00:08:38;90339.69;;;6.58;53.91
72585;BME280;60618;40.084;32.908;2022-11-11T00:11:10;90337.25;;;6.64;53.14
72585;BME280;60618;40.084;32.908;2022-11-11T00:13:40;90336.53;;;6.50;53.96
72585;BME280;60618;40.084;32.908;2022-11-11T00:16:12;90338.84;;;6.36;54.15
72585;BME280;60618;40.084;32.908;2022-11-11T00:18:41;90334.53;;;6.42;54.39
72585;BME280;60618;40.084;32.908;2022-11-11T00:21:12;90333.56;;;6.36;54.49
72585;BME280;60618;40.084;32.908;2022-11-11T00:23:41;90330.50;;;5.99;55.96
72585;BME280;60618;40.084;32.908;2022-11-11T00:26:12;90329.75;;;5.98;55.75
72585;BME280;60618;40.084;32.908;2022-11-11T00:28:59;90333.34;;;6.05;54.92
72585;BME280;60618;40.084;32.908;2022-11-11T00:31:30;90344.13;;;5.97;55.35
72585;BME280;60618;40.084;32.908;2022-11-11T00:33:56;90333.34;;;6.05;55.13
72585;BME280;60618;40.084;32.908;2022-11-11T00:36:23;90335.69;;;6.03;55.47
72585;BME280;60618;40.084;32.908;2022-11-11T00:38:50;90338.34;;;6.15;54.15
72585;BME280;60618;40.084;32.908;2022-11-11T00:41:19;90338.88;;;6.23;54.30
72585;BME280;60618;40.084;32.908;2022-11-11T00:43:46;90329.13;;;6.20;54.16
72585;BME280;60618;40.084;32.908;2022-11-11T00:46:15;90335.25;;;6.17;54.32
72585;BME280;60618;40.084;32.908;2022-11-11T00:48:42;90332.41;;;6.24;53.93
72585;BME280;60618;40.084;32.908;2022-11-11T00:51:09;90330.00;;;6.30;54.04
72585;BME280;60618;40.084;32.908;2022-11-11T00:53:36;90326.38;;;6.36;53.81
72585;BME280;60618;40.084;32.908;2022-11-11T00:56:03;90329.66;;;6.28;53.83
72585;BME280;60618;40.084;32.908;2022-11-11T00:58:31;90329.56;;;6.06;54.72
72585;BME280;60618;40.084;32.908;2022-11-11T01:00:59;90329.44;;;6.09;55.36
72585;BME280;60618;40.084;32.908;2022-11-11T01:03:29;90327.75;;;6.03;55.10
72585;BME280;60618;40.084;32.908;2022-11-11T01:05:59;90328.38;;;6.07;54.43
72585;BME280;60618;40.084;32.908;2022-11-11T01:08:26;90332.63;;;6.17;54.45
72585;BME280;60618;40.084;32.908;2022-11-11T01:10:54;90336.94;;;6.11;55.53
72585;BME280;60618;40.084;32.908;2022-11-11T01:13:24;90327.53;;;5.97;56.14
72585;BME280;60618;40.084;32.908;2022-11-11T01:16:00;90328.47;;;5.90;55.90
72585;BME280;60618;40.084;32.908;2022-11-11T01:18:28;90321.97;;;5.79;56.62
72585;BME280;60618;40.084;32.908;2022-11-11T01:21:01;90334.47;;;5.78;56.31
72585;BME280;60618;40.084;32.908;2022-11-11T01:23:29;90324.69;;;5.62;57.04
72585;BME280;60618;40.084;32.908;2022-11-11T01:26:05;90322.38;;;5.64;56.76
72585;BME280;60618;40.084;32.908;2022-11-11T01:28:32;90326.19;;;5.63;57.20
72585;BME280;60618;40.084;32.908;2022-11-11T01:31:05;90328.88;;;5.47;56.87
72585;BME280;60618;40.084;32.908;2022-11-11T01:33:33;90321.63;;;5.51;57.16
72585;BME280;60618;40.084;32.908;2022-11-11T01:36:24;90330.53;;;5.70;56.11
72585;BME280;60618;40.084;32.908;2022-11-11T01:38:54;90331.16;;;5.61;56.20
72585;BME280;60618;40.084;32.908;2022-11-11T01:41:30;90329.59;;;5.77;55.50
72585;BME280;60618;40.084;32.908;2022-11-11T01:52:15;90330.50;;;6.12;54.86
72585;BME280;60618;40.084;32.908;2022-11-11T01:59:56;90328.63;;;5.83;56.02
72585;BME280;60618;40.084;32.908;2022-11-11T02:02:37;90327.69;;;5.90;55.96
72585;BME280;60618;40.084;32.908;2022-11-11T02:05:09;90332.94;;;5.93;54.99
72585;BME280;60618;40.084;32.908;2022-11-11T02:07:38;90332.63;;;6.04;54.99
72585;BME280;60618;40.084;32.908;2022-11-11T02:10:07;90335.47;;;6.10;55.02
72585;BME280;60618;40.084;32.908;2022-11-11T02:12:37;90336.50;;;6.00;55.76
72585;BME280;60618;40.084;32.908;2022-11-11T02:15:05;90335.81;;;5.70;57.24
72585;BME280;60618;40.084;32.908;2022-11-11T02:17:32;90344.00;;;5.88;56.06
72585;BME280;60618;40.084;32.908;2022-11-11T02:20:02;90339.03;;;5.90;55.93
72585;BME280;60618;40.084;32.908;2022-11-11T02:22:47;90341.84;;;5.83;56.30
72585;BME280;60618;40.084;32.908;2022-11-11T02:25:18;90338.34;;;5.61;57.36
72585;BME280;60618;40.084;32.908;2022-11-11T02:27:49;90339.66;;;5.40;57.12
72585;BME280;60618;40.084;32.908;2022-11-11T02:30:18;90350.41;;;5.33;57.24
72585;BME280;60618;40.084;32.908;2022-11-11T02:32:48;90349.72;;;5.16;58.68
72585;BME280;60618;40.084;32.908;2022-11-11T02:35:23;90342.97;;;4.99;59.20
72585;BME280;60618;40.084;32.908;2022-11-11T02:37:52;90341.78;;;5.16;57.71
72585;BME280;60618;40.084;32.908;2022-11-11T02:40:29;90352.78;;;5.15;58.07
72585;BME280;60618;40.084;32.908;2022-11-11T02:42:59;90345.94;;;5.01;58.50
72585;BME280;60618;40.084;32.908;2022-11-11T02:45:26;90345.63;;;4.82;59.23
72585;BME280;60618;40.084;32.908;2022-11-11T02:47:53;90338.38;;;4.87;59.86
72585;BME280;60618;40.084;32.908;2022-11-11T02:50:20;90338.25;;;4.77;59.21
72585;BME280;60618;40.084;32.908;2022-11-11T02:52:47;90337.97;;;4.72;60.07
72585;BME280;60618;40.084;32.908;2022-11-11T02:55:14;90335.09;;;4.82;58.94
72585;BME280;60618;40.084;32.908;2022-11-11T02:57:41;90339.19;;;5.00;58.27
72585;BME280;60618;40.084;32.908;2022-11-11T03:00:09;90335.19;;;5.08;57.82
72585;BME280;60618;40.084;32.908;2022-11-11T03:02:37;90326.50;;;4.95;59.47
72585;BME280;60618;40.084;32.908;2022-11-11T03:05:05;90331.13;;;4.58;60.34
72585;BME280;60618;40.084;32.908;2022-11-11T03:07:32;90330.63;;;4.79;59.54
72585;BME280;60618;40.084;32.908;2022-11-11T03:09:59;90336.38;;;5.07;57.93
72585;BME280;60618;40.084;32.908;2022-11-11T03:12:26;90331.78;;;5.24;57.67
72585;BME280;60618;40.084;32.908;2022-11-11T03:14:53;90331.00;;;5.39;56.93
72585;BME280;60618;40.084;32.908;2022-11-11T03:17:20;90324.34;;;5.48;57.44
72585;BME280;60618;40.084;32.908;2022-11-11T03:19:47;90328.63;;;5.58;56.69
72585;BME280;60618;40.084;32.908;2022-11-11T03:22:14;90329.25;;;5.62;56.98
72585;BME280;60618;40.084;32.908;2022-11-11T03:25:01;90330.22;;;5.68;56.66
72585;BME280;60618;40.084;32.908;2022-11-11T03:27:28;90329.13;;;5.65;56.68
72585;BME280;60618;40.084;32.908;2022-11-11T03:29:56;90325.31;;;5.54;57.28
72585;BME280;60618;40.084;32.908;2022-11-11T03:32:23;90328.22;;;5.30;58.56
72585;BME280;60618;40.084;32.908;2022-11-11T03:34:50;90334.84;;;5.22;58.11
72585;BME280;60618;40.084;32.908;2022-11-11T03:37:17;90333.50;;;5.30;58.27
72585;BME280;60618;40.084;32.908;2022-11-11T03:39:44;90331.50;;;5.34;58.15
72585;BME280;60618;40.084;32.908;2022-11-11T03:42:14;90338.91;;;5.39;57.59
72585;BME280;60618;40.084;32.908;2022-11-11T03:44:40;90343.44;;;5.39;57.41
72585;BME280;60618;40.084;32.908;2022-11-11T03:47:08;90334.28;;;5.44;57.15
72585;BME280;60618;40.084;32.908;2022-11-11T03:49:35;90342.91;;;5.31;57.77
72585;BME280;60618;40.084;32.908;2022-11-11T03:52:01;90339.28;;;5.25;58.05
72585;BME280;60618;40.084;32.908;2022-11-11T03:54:29;90334.75;;;5.26;57.78
72585;BME280;60618;40.084;32.908;2022-11-11T03:56:55;90330.03;;;5.33;56.73
72585;BME280;60618;40.084;32.908;2022-11-11T03:59:22;90344.41;;;5.45;56.94
72585;BME280;60618;40.084;32.908;2022-11-11T04:01:49;90346.97;;;5.49;56.55
72585;BME280;60618;40.084;32.908;2022-11-11T04:04:16;90346.56;;;5.50;56.70
72585;BME280;60618;40.084;32.908;2022-11-11T04:06:43;90348.34;;;5.53;56.64
72585;BME280;60618;40.084;32.908;2022-11-11T04:09:10;90343.38;;;5.55;56.04
72585;BME280;60618;40.084;32.908;2022-11-11T04:11:40;90341.03;;;5.45;56.37
72585;BME280;60618;40.084;32.908;2022-11-11T04:14:09;90343.91;;;5.50;56.99
72585;BME280;60618;40.084;32.908;2022-11-11T04:16:37;90344.13;;;5.56;56.93
72585;BME280;60618;40.084;32.908;2022-11-11T04:19:04;90345.59;;;5.57;56.51
72585;BME280;60618;40.084;32.908;2022-11-11T04:21:31;90347.00;;;5.61;56.30
72585;BME280;60618;40.084;32.908;2022-11-11T04:23:57;90345.22;;;5.58;55.98
72585;BME280;60618;40.084;32.908;2022-11-11T04:26:24;90340.66;;;5.59;56.58
72585;BME280;60618;40.084;32.908;2022-11-11T04:28:51;90350.25;;;5.53;56.73
72585;BME280;60618;40.084;32.908;2022-11-11T04:31:21;90348.31;;;5.40;57.02
72585;BME280;60618;40.084;32.908;2022-11-11T04:33:48;90356.25;;;5.40;57.33
72585;BME280;60618;40.084;32.908;2022-11-11T04:36:15;90351.47;;;5.35;57.69
72585;BME280;60618;40.084;32.908;2022-11-11T04:38:42;90353.41;;;5.48;57.95
72585;BME280;60618;40.084;32.908;2022-11-11T04:41:09;90361.97;;;5.52;57.81
72585;BME280;60618;40.084;32.908;2022-11-11T04:43:36;90366.50;;;5.80;57.74
72585;BME280;60618;40.084;32.908;2022-11-11T04:46:04;90355.41;;;5.85;57.32
72585;BME280;60618;40.084;32.908;2022-11-11T04:48:31;90366.78;;;5.69;56.94
72585;BME280;60618;40.084;32.908;2022-11-11T04:50:58;90361.13;;;5.55;57.47
72585;BME280;60618;40.084;32.908;2022-11-11T04:53:25;90363.59;;;5.62;57.07
72585;BME280;60618;40.084;32.908;2022-11-11T04:55:52;90367.09;;;5.59;57.23
72585;BME280;60618;40.084;32.908;2022-11-11T04:58:21;90364.81;;;5.45;57.18
72585;BME280;60618;40.084;32.908;2022-11-11T05:00:48;90369.22;;;5.35;57.02
72585;BME280;60618;40.084;32.908;2022-11-11T05:03:16;90367.91;;;5.27;57.39
72585;BME280;60618;40.084;32.908;2022-11-11T05:08:14;90363.78;;;5.26;57.41
72585;BME280;60618;40.084;32.908;2022-11-11T05:10:42;90371.56;;;5.17;57.97
72585;BME280;60618;40.084;32.908;2022-11-11T05:13:09;90370.97;;;5.25;57.47
72585;BME280;60618;40.084;32.908;2022-11-11T05:15:35;90375.66;;;5.34;57.49
72585;BME280;60618;40.084;32.908;2022-11-11T05:18:02;90381.31;;;5.49;56.94
72585;BME280;60618;40.084;32.908;2022-11-11T05:20:29;90380.94;;;5.63;56.79
72585;BME280;60618;40.084;32.908;2022-11-11T05:23:04;90379.81;;;5.77;56.58
72585;BME280;60618;40.084;32.908;2022-11-11T05:25:30;90381.50;;;5.83;56.64
72585;BME280;60618;40.084;32.908;2022-11-11T05:27:57;90384.84;;;6.00;56.04
72585;BME280;60618;40.084;32.908;2022-11-11T05:30:25;90380.41;;;6.10;55.72
72585;BME280;60618;40.084;32.908;2022-11-11T05:32:54;90390.50;;;6.15;56.13
72585;BME280;60618;40.084;32.908;2022-11-11T05:35:22;90387.84;;;6.15;55.84
72585;BME280;60618;40.084;32.908;2022-11-11T05:37:49;90380.03;;;6.24;55.17
72585;BME280;60618;40.084;32.908;2022-11-11T05:40:15;90386.91;;;6.34;54.51
72585;BME280;60618;40.084;32.908;2022-11-11T05:42:42;90388.78;;;6.46;54.12
72585;BME280;60618;40.084;32.908;2022-11-11T05:45:16;90385.31;;;6.62;54.26
72585;BME280;60618;40.084;32.908;2022-11-11T05:47:43;90388.78;;;6.72;53.78
72585;BME280;60618;40.084;32.908;2022-11-11T05:50:10;90394.53;;;6.70;53.32
72585;BME280;60618;40.084;32.908;2022-11-11T05:52:36;90388.78;;;6.72;53.97
72585;BME280;60618;40.084;32.908;2022-11-11T05:55:04;90389.22;;;6.70;53.33
72585;BME280;60618;40.084;32.908;2022-11-11T05:57:32;90394.28;;;6.65;54.03
72585;BME280;60618;40.084;32.908;2022-11-11T05:59:59;90394.53;;;6.70;53.97
72585;BME280;60618;40.084;32.908;2022-11-11T06:02:26;90390.28;;;6.73;53.72
72585;BME280;60618;40.084;32.908;2022-11-11T06:04:53;90393.84;;;6.92;53.48
72585;BME280;60618;40.084;32.908;2022-11-11T06:07:20;90397.53;;;7.07;52.95
72585;BME280;60618;40.084;32.908;2022-11-11T06:09:47;90398.66;;;7.19;52.86
72585;BME280;60618;40.084;32.908;2022-11-11T06:12:14;90400.66;;;7.27;52.70
72585;BME280;60618;40.084;32.908;2022-11-11T06:14:40;90392.69;;;7.40;52.21
72585;BME280;60618;40.084;32.908;2022-11-11T06:17:08;90400.56;;;7.31;51.94
72585;BME280;60618;40.084;32.908;2022-11-11T06:19:34;90401.47;;;6.90;53.46
72585;BME280;60618;40.084;32.908;2022-11-11T06:22:01;90404.69;;;6.72;53.54
72585;BME280;60618;40.084;32.908;2022-11-11T06:24:28;90407.63;;;6.74;53.54
72585;BME280;60618;40.084;32.908;2022-11-11T06:26:55;90406.03;;;6.89;53.26
72585;BME280;60618;40.084;32.908;2022-11-11T06:29:22;90404.72;;;7.19;53.33
72585;BME280;60618;40.084;32.908;2022-11-11T06:31:49;90404.91;;;7.25;52.17
72585;BME280;60618;40.084;32.908;2022-11-11T06:34:16;90411.31;;;7.49;52.37
72585;BME280;60618;40.084;32.908;2022-11-11T06:36:43;90402.94;;;7.73;51.30
72585;BME280;60618;40.084;32.908;2022-11-11T06:39:10;90407.63;;;7.90;50.31
72585;BME280;60618;40.084;32.908;2022-11-11T06:41:37;90407.09;;;7.74;51.33
72585;BME280;60618;40.084;32.908;2022-11-11T06:44:03;90401.31;;;7.53;51.70
72585;BME280;60618;40.084;32.908;2022-11-11T06:46:30;90414.50;;;7.44;51.55
72585;BME280;60618;40.084;32.908;2022-11-11T06:48:57;90404.91;;;7.59;51.58
72585;BME280;60618;40.084;32.908;2022-11-11T06:51:24;90403.94;;;7.66;51.59
72585;BME280;60618;40.084;32.908;2022-11-11T06:53:51;90404.56;;;7.70;51.46
72585;BME280;60618;40.084;32.908;2022-11-11T06:56:18;90395.00;;;7.73;51.43
72585;BME280;60618;40.084;32.908;2022-11-11T06:58:45;90399.28;;;7.92;51.29
72585;BME280;60618;40.084;32.908;2022-11-11T07:01:12;90402.47;;;7.87;50.71
72585;BME280;60618;40.084;32.908;2022-11-11T07:03:39;90401.47;;;8.15;49.75
72585;BME280;60618;40.084;32.908;2022-11-11T07:06:06;90408.38;;;8.35;50.30
72585;BME280;60618;40.084;32.908;2022-11-11T07:08:33;90397.59;;;8.60;49.51
72585;BME280;60618;40.084;32.908;2022-11-11T07:11:00;90400.19;;;8.51;49.17
72585;BME280;60618;40.084;32.908;2022-11-11T07:13:39;90398.72;;;8.50;50.45
72585;BME280;60618;40.084;32.908;2022-11-11T07:16:06;90400.19;;;8.51;50.54
72585;BME280;60618;40.084;32.908;2022-11-11T07:18:33;90410.25;;;8.34;50.76
72585;BME280;60618;40.084;32.908;2022-11-11T07:21:00;90400.47;;;8.44;51.30
72585;BME280;60618;40.084;32.908;2022-11-11T07:23:27;90395.78;;;8.48;50.92
72585;BME280;60618;40.084;32.908;2022-11-11T07:25:54;90401.47;;;8.68;50.40
72585;BME280;60618;40.084;32.908;2022-11-11T07:28:21;90399.44;;;8.81;49.92
72585;BME280;60618;40.084;32.908;2022-11-11T07:30:48;90406.41;;;8.97;49.52
72585;BME280;60618;40.084;32.908;2022-11-11T07:33:15;90399.22;;;9.07;50.28
72585;BME280;60618;40.084;32.908;2022-11-11T07:35:48;90399.53;;;9.09;49.17
72585;BME280;60618;40.084;32.908;2022-11-11T07:38:15;90398.69;;;9.30;49.37
72585;BME280;60618;40.084;32.908;2022-11-11T07:40:42;90397.94;;;9.21;50.22
72585;BME280;60618;40.084;32.908;2022-11-11T07:43:09;90401.97;;;9.44;49.11
72585;BME280;60618;40.084;32.908;2022-11-11T07:45:36;90400.19;;;9.50;49.18
72585;BME280;60618;40.084;32.908;2022-11-11T07:48:02;90401.06;;;9.47;49.60
72585;BME280;60618;40.084;32.908;2022-11-11T07:50:29;90409.19;;;9.52;49.78
72585;BME280;60618;40.084;32.908;2022-11-11T07:52:56;90405.78;;;9.79;48.85
72585;BME280;60618;40.084;32.908;2022-11-11T07:55:23;90399.91;;;9.75;48.97
72585;BME280;60618;40.084;32.908;2022-11-11T07:57:53;90403.28;;;9.85;49.73
72585;BME280;60618;40.084;32.908;2022-11-11T08:00:20;90397.22;;;10.03;49.08
72585;BME280;60618;40.084;32.908;2022-11-11T08:02:47;90396.88;;;10.46;48.25
72585;BME280;60618;40.084;32.908;2022-11-11T08:05:15;90398.94;;;10.51;47.59
72585;BME280;60618;40.084;32.908;2022-11-11T08:07:42;90399.13;;;10.81;47.73
72585;BME280;60618;40.084;32.908;2022-11-11T08:10:10;90392.56;;;10.91;47.77
72585;BME280;60618;40.084;32.908;2022-11-11T08:12:37;90392.78;;;10.78;46.82
72585;BME280;60618;40.084;32.908;2022-11-11T08:15:04;90407.72;;;10.76;46.99
72585;BME280;60618;40.084;32.908;2022-11-11T08:17:37;90394.97;;;10.89;46.41
72585;BME280;60618;40.084;32.908;2022-11-11T08:20:05;90395.69;;;10.90;46.57
72585;BME280;60618;40.084;32.908;2022-11-11T08:22:50;90392.75;;;10.88;46.52
72585;BME280;60618;40.084;32.908;2022-11-11T08:25:39;90395.94;;;11.01;47.17
72585;BME280;60618;40.084;32.908;2022-11-11T08:28:06;90391.34;;;11.01;46.93
72585;BME280;60618;40.084;32.908;2022-11-11T08:30:33;90395.72;;;11.14;46.88
72585;BME280;60618;40.084;32.908;2022-11-11T08:33:02;90399.22;;;10.96;46.90
72585;BME280;60618;40.084;32.908;2022-11-11T08:35:49;90392.22;;;11.07;47.34
72585;BME280;60618;40.084;32.908;2022-11-11T08:38:17;90390.22;;;11.41;46.66
72585;BME280;60618;40.084;32.908;2022-11-11T08:40:43;90388.41;;;11.47;46.81
72585;BME280;60618;40.084;32.908;2022-11-11T08:43:11;90386.28;;;11.36;47.40
72585;BME280;60618;40.084;32.908;2022-11-11T08:45:38;90384.13;;;11.26;46.80
72585;BME280;60618;40.084;32.908;2022-11-11T08:48:06;90387.97;;;11.49;46.44
72585;BME280;60618;40.084;32.908;2022-11-11T08:50:33;90384.53;;;11.96;45.54
72585;BME280;60618;40.084;32.908;2022-11-11T08:53:00;90377.56;;;11.75;45.92
72585;BME280;60618;40.084;32.908;2022-11-11T08:55:27;90378.00;;;11.73;46.45
72585;BME280;60618;40.084;32.908;2022-11-11T08:57:58;90375.81;;;11.72;46.50
72585;BME280;60618;40.084;32.908;2022-11-11T09:00:25;90379.94;;;11.97;45.73
72585;BME280;60618;40.084;32.908;2022-11-11T09:02:53;90368.38;;;12.14;44.62
72585;BME280;60618;40.084;32.908;2022-11-11T09:05:20;90374.06;;;12.37;44.41
72585;BME280;60618;40.084;32.908;2022-11-11T09:07:47;90371.31;;;12.16;44.41
72585;BME280;60618;40.084;32.908;2022-11-11T09:10:13;90360.09;;;12.42;44.40
72585;BME280;60618;40.084;32.908;2022-11-11T09:12:40;90358.88;;;12.43;43.87
72585;BME280;60618;40.084;32.908;2022-11-11T09:15:07;90362.09;;;12.47;43.40
72585;BME280;60618;40.084;32.908;2022-11-11T09:17:34;90352.91;;;12.33;44.27
72585;BME280;60618;40.084;32.908;2022-11-11T09:20:01;90357.94;;;12.46;43.12
72585;BME280;60618;40.084;32.908;2022-11-11T09:22:28;90348.81;;;12.67;43.18
72585;BME280;60618;40.084;32.908;2022-11-11T09:24:55;90344.41;;;12.49;43.17
72585;BME280;60618;40.084;32.908;2022-11-11T09:27:22;90337.41;;;12.37;43.34
72585;BME280;60618;40.084;32.908;2022-11-11T09:29:49;90342.38;;;12.59;43.57
72585;BME280;60618;40.084;32.908;2022-11-11T09:32:16;90338.25;;;12.58;42.85
72585;BME280;60618;40.084;32.908;2022-11-11T09:34:43;90334.88;;;12.78;42.67
72585;BME280;60618;40.084;32.908;2022-11-11T09:37:10;90331.84;;;12.85;42.14
72585;BME280;60618;40.084;32.908;2022-11-11T09:39:36;90329.53;;;12.78;41.29
72585;BME280;60618;40.084;32.908;2022-11-11T09:47:21;90327.13;;;12.80;41.34
72585;BME280;60618;40.084;32.908;2022-11-11T09:50:01;90324.81;;;12.88;41.11
72585;BME280;60618;40.084;32.908;2022-11-11T09:52:37;90330.28;;;12.78;41.17
72585;BME280;60618;40.084;32.908;2022-11-11T09:55:29;90327.38;;;12.97;41.11
72585;BME280;60618;40.084;32.908;2022-11-11T09:58:04;90322.50;;;13.30;40.60
72585;BME280;60618;40.084;32.908;2022-11-11T10:00:36;90323.97;;;13.31;40.28
72585;BME280;60618;40.084;32.908;2022-11-11T10:03:15;90327.63;;;13.34;40.51
72585;BME280;60618;40.084;32.908;2022-11-11T10:05:51;90314.50;;;13.56;39.67
72585;BME280;60618;40.084;32.908;2022-11-11T10:08:26;90307.09;;;13.46;40.20
72585;BME280;60618;40.084;32.908;2022-11-11T10:10:55;90311.81;;;13.56;39.69
72585;BME280;60618;40.084;32.908;2022-11-11T10:13:35;90303.59;;;13.80;38.28
72585;BME280;60618;40.084;32.908;2022-11-11T10:21:52;90301.16;;;14.34;36.74
72585;BME280;60618;40.084;32.908;2022-11-11T10:24:41;90294.56;;;14.04;38.07
72585;BME280;60618;40.084;32.908;2022-11-11T10:27:20;90292.84;;;13.54;38.28
72585;BME280;60618;40.084;32.908;2022-11-11T10:29:49;90293.28;;;13.73;37.55
72585;BME280;60618;40.084;32.908;2022-11-11T10:34:48;90279.47;;;13.80;37.98
72585;BME280;60618;40.084;32.908;2022-11-11T10:37:23;90281.03;;;13.41;37.97
72585;BME280;60618;40.084;32.908;2022-11-11T10:42:33;90281.75;;;13.41;37.36
72585;BME280;60618;40.084;32.908;2022-11-11T10:45:15;90273.13;;;13.31;37.22
72585;BME280;60618;40.084;32.908;2022-11-11T10:48:06;90275.25;;;13.27;37.06
72585;BME280;60618;40.084;32.908;2022-11-11T10:50:48;90263.13;;;13.52;36.36
72585;BME280;60618;40.084;32.908;2022-11-11T10:53:24;90264.72;;;13.64;36.44
72585;BME280;60618;40.084;32.908;2022-11-11T10:58:57;90258.00;;;13.75;35.24
72585;BME280;60618;40.084;32.908;2022-11-11T11:01:59;90248.34;;;13.83;35.60
72585;BME280;60618;40.084;32.908;2022-11-11T11:04:34;90259.06;;;13.83;35.10
72585;BME280;60618;40.084;32.908;2022-11-11T11:07:05;90253.28;;;13.90;34.77
72585;BME280;60618;40.084;32.908;2022-11-11T11:09:54;90255.44;;;13.60;34.98
72585;BME280;60618;40.084;32.908;2022-11-11T11:12:27;90256.72;;;13.44;35.99
72585;BME280;60618;40.084;32.908;2022-11-11T11:15:01;90254.88;;;13.56;36.56
72585;BME280;60618;40.084;32.908;2022-11-11T11:17:35;90258.78;;;13.55;35.70
72585;BME280;60618;40.084;32.908;2022-11-11T11:20:17;90258.44;;;13.47;35.60
72585;BME280;60618;40.084;32.908;2022-11-11T11:22:52;90249.19;;;13.69;34.96
72585;BME280;60618;40.084;32.908;2022-11-11T11:25:20;90257.59;;;13.82;34.91
72585;BME280;60618;40.084;32.908;2022-11-11T11:27:52;90246.75;;;13.45;36.21
72585;BME280;60618;40.084;32.908;2022-11-11T11:30:24;90253.97;;;13.59;35.56
72585;BME280;60618;40.084;32.908;2022-11-11T11:33:03;90261.16;;;13.73;35.63
72585;BME280;60618;40.084;32.908;2022-11-11T11:35:41;90253.16;;;13.53;36.60
72585;BME280;60618;40.084;32.908;2022-11-11T11:38:12;90260.53;;;13.58;35.68
72585;BME280;60618;40.084;32.908;2022-11-11T11:43:32;90252.28;;;13.61;34.99
72585;BME280;60618;40.084;32.908;2022-11-11T11:46:01;90252.13;;;13.71;34.61
72585;BME280;60618;40.084;32.908;2022-11-11T11:51:32;90249.22;;;13.74;34.81
72585;BME280;60618;40.084;32.908;2022-11-11T11:54:08;90248.88;;;13.61;35.32
72585;BME280;60618;40.084;32.908;2022-11-11T11:56:43;90247.50;;;13.45;34.67
72585;BME280;60618;40.084;32.908;2022-11-11T11:59:21;90247.31;;;13.49;34.89
72585;BME280;60618;40.084;32.908;2022-11-11T12:12:42;90238.47;;;13.43;34.33
72585;BME280;60618;40.084;32.908;2022-11-11T12:15:20;90239.06;;;13.52;34.76
72585;BME280;60618;40.084;32.908;2022-11-11T12:18:07;90242.47;;;13.53;34.24
72585;BME280;60618;40.084;32.908;2022-11-11T12:20:40;90239.59;;;13.36;34.89
72585;BME280;60618;40.084;32.908;2022-11-11T12:31:48;90242.75;;;13.34;34.99
72585;BME280;60618;40.084;32.908;2022-11-11T12:34:38;90247.84;;;13.32;35.05
72585;BME280;60618;40.084;32.908;2022-11-11T12:37:24;90240.06;;;13.14;36.04
72585;BME280;60618;40.084;32.908;2022-11-11T12:40:18;90239.34;;;13.14;35.78
72585;BME280;60618;40.084;32.908;2022-11-11T12:51:14;90228.06;;;13.24;35.02
72585;BME280;60618;40.084;32.908;2022-11-11T12:56:58;90238.13;;;13.15;35.21
72585;BME280;60618;40.084;32.908;2022-11-11T12:59:39;90236.59;;;13.08;35.22
72585;BME280;60618;40.084;32.908;2022-11-11T13:10:44;90231.72;;;13.06;34.67
72585;BME280;60618;40.084;32.908;2022-11-11T13:16:08;90233.53;;;12.95;34.92
72585;BME280;60618;40.084;32.908;2022-11-11T13:18:39;90232.59;;;12.98;35.01
72585;BME280;60618;40.084;32.908;2022-11-11T13:21:12;90230.78;;;12.89;35.19
72585;BME280;60618;40.084;32.908;2022-11-11T13:23:41;90229.56;;;12.90;34.84
72585;BME280;60618;40.084;32.908;2022-11-11T13:31:53;90225.69;;;12.71;35.04
72585;BME280;60618;40.084;32.908;2022-11-11T13:34:21;90229.75;;;12.66;34.91
72585;BME280;60618;40.084;32.908;2022-11-11T13:36:53;90233.09;;;12.61;35.29
72585;BME280;60618;40.084;32.908;2022-11-11T13:39:25;90231.63;;;12.60;34.85
72585;BME280;60618;40.084;32.908;2022-11-11T13:41:55;90232.34;;;12.61;34.94
72585;BME280;60618;40.084;32.908;2022-11-11T13:44:48;90230.78;;;12.54;35.12
72585;BME280;60618;40.084;32.908;2022-11-11T13:47:21;90238.56;;;12.52;35.20
72585;BME280;60618;40.084;32.908;2022-11-11T13:49:56;90236.78;;;12.49;34.88
72585;BME280;60618;40.084;32.908;2022-11-11T13:52:29;90243.06;;;12.46;34.62
72585;BME280;60618;40.084;32.908;2022-11-11T13:55:01;90241.06;;;12.41;34.47
72585;BME280;60618;40.084;32.908;2022-11-11T13:57:30;90241.25;;;12.37;34.89
72585;BME280;60618;40.084;32.908;2022-11-11T14:00:06;90244.59;;;12.32;35.04
72585;BME280;60618;40.084;32.908;2022-11-11T14:05:42;90245.13;;;12.21;35.24
72585;BME280;60618;40.084;32.908;2022-11-11T14:08:09;90240.47;;;12.16;35.28
72585;BME280;60618;40.084;32.908;2022-11-11T14:10:57;90240.56;;;12.07;35.59
72585;BME280;60618;40.084;32.908;2022-11-11T14:15:55;90238.53;;;12.02;35.59
72585;BME280;60618;40.084;32.908;2022-11-11T14:20:52;90249.41;;;11.99;35.38
72585;BME280;60618;40.084;32.908;2022-11-11T14:28:39;90243.88;;;12.02;35.17
72585;BME280;60618;40.084;32.908;2022-11-11T14:33:59;90246.16;;;12.09;35.33
72585;BME280;60618;40.084;32.908;2022-11-11T14:41:51;90249.00;;;12.20;35.61
72585;BME280;60618;40.084;32.908;2022-11-11T14:52:22;90239.00;;;12.15;34.85
72585;BME280;60618;40.084;32.908;2022-11-11T14:57:47;90243.78;;;12.11;35.32
72585;BME280;60618;40.084;32.908;2022-11-11T15:00:45;90247.28;;;12.03;35.46
72585;BME280;60618;40.084;32.908;2022-11-11T15:05:52;90248.84;;;12.09;35.96
72585;BME280;60618;40.084;32.908;2022-11-11T15:08:24;90248.75;;;12.04;35.24
72585;BME280;60618;40.084;32.908;2022-11-11T15:24:52;90268.56;;;11.58;36.04
72585;BME280;60618;40.084;32.908;2022-11-11T15:27:58;90272.16;;;11.55;36.04
72585;BME280;60618;40.084;32.908;2022-11-11T15:30:16;90267.91;;;11.49;36.34